Time,TemperatureF,DewpointF,PressureIn,WindDirection,WindDirectionDegrees,WindSpeedMPH,WindSpeedGustMPH,Humidity,HourlyPrecipIn,Conditions,Clouds,dailyrainin,SoftwareType,DateUTC
2013-01-21 00:10:00,1.3,-10.4,29.65,NE,35,3.0,3.0,57,0.00,,,0.00,Wunderground v.1.13,2013-01-21 05:10:00,
2013-01-21 00:30:00,1.1,-10.6,29.65,East,82,3.0,6.0,57,0.00,,,0.00,Wunderground v.1.13,2013-01-21 05:30:00,
2013-01-21 00:40:00,1.3,-10.1,29.65,NE,42,4.0,4.0,58,0.00,,,0.00,Wunderground v.1.13,2013-01-21 05:40:00,
2013-01-21 01:00:00,1.1,-9.9,29.66,East,79,3.0,11.0,59,0.00,,,0.00,Wunderground v.1.13,2013-01-21 06:00:00,
2013-01-21 01:10:00,0.9,-10.4,29.66,ENE,73,4.0,4.0,58,0.00,,,0.00,Wunderground v.1.13,2013-01-21 06:10:00,
2013-01-21 01:30:00,1.1,-11.0,29.66,North,352,5.0,5.0,56,0.00,,,0.00,Wunderground v.1.13,2013-01-21 06:30:00,
2013-01-21 01:40:00,0.9,-10.8,29.66,WNW,289,5.0,5.0,57,0.00,,,0.00,Wunderground v.1.13,2013-01-21 06:40:00,
2013-01-21 02:00:00,0.7,-11.0,29.67,East,93,5.0,5.0,57,0.00,,,0.00,Wunderground v.1.13,2013-01-21 07:00:00,
2013-01-21 02:10:00,0.5,-11.2,29.67,North,6,4.0,4.0,57,0.00,,,0.00,Wunderground v.1.13,2013-01-21 07:10:00,
2013-01-21 02:30:00,0.1,-11.6,29.68,ESE,112,5.0,5.0,57,0.00,,,0.00,Wunderground v.1.13,2013-01-21 07:30:00,
2013-01-21 02:40:00,-0.2,-11.8,29.68,East,92,3.0,3.0,57,0.00,,,0.00,Wunderground v.1.13,2013-01-21 07:40:00,
2013-01-21 02:51:00,-0.4,-12.0,29.68,NE,49,4.0,4.0,57,0.00,,,0.00,Wunderground v.1.13,2013-01-21 07:51:00,
2013-01-21 03:00:00,-0.4,-12.4,29.69,NNE,13,5.0,5.0,56,0.00,,,0.00,Wunderground v.1.13,2013-01-21 08:00:00,
2013-01-21 03:10:00,-0.6,-12.2,29.69,NE,47,4.0,8.0,57,0.00,,,0.00,Wunderground v.1.13,2013-01-21 08:10:00,
2013-01-21 03:21:00,-0.8,-11.7,29.69,ENE,76,4.0,5.0,59,0.00,,,0.00,Wunderground v.1.13,2013-01-21 08:21:00,
2013-01-21 03:30:00,-1.0,-12.9,29.69,WSW,243,5.0,5.0,56,0.00,,,0.00,Wunderground v.1.13,2013-01-21 08:30:00,
2013-01-21 03:40:00,-1.2,-12.4,29.69,East,92,4.0,4.0,58,0.00,,,0.00,Wunderground v.1.13,2013-01-21 08:40:00,
2013-01-21 04:00:00,-1.4,-13.0,29.71,South,175,5.0,5.0,57,0.00,,,0.00,Wunderground v.1.13,2013-01-21 09:00:00,
2013-01-21 04:10:00,-1.6,-13.2,29.71,ESE,119,4.0,4.0,57,0.00,,,0.00,Wunderground v.1.13,2013-01-21 09:10:00,
2013-01-21 04:30:00,-2.0,-13.9,29.72,East,89,4.0,4.0,56,0.00,,,0.00,Wunderground v.1.13,2013-01-21 09:30:00,
2013-01-21 04:40:00,-2.0,-14.2,29.72,NE,45,5.0,5.0,55,0.00,,,0.00,Wunderground v.1.13,2013-01-21 09:40:00,
2013-01-21 05:00:00,-2.6,-13.8,29.73,NE,38,3.0,6.0,58,0.00,,,0.00,Wunderground v.1.13,2013-01-21 10:00:00,
2013-01-21 05:10:00,-2.6,-14.1,29.73,NE,52,3.0,3.0,57,0.00,,,0.00,Wunderground v.1.13,2013-01-21 10:10:00,
2013-01-21 05:30:00,-2.8,-14.3,29.74,NE,40,3.0,3.0,57,0.00,,,0.00,Wunderground v.1.13,2013-01-21 10:30:00,
2013-01-21 05:40:00,-3.1,-14.6,29.74,East,96,4.0,4.0,57,0.00,,,0.00,Wunderground v.1.13,2013-01-21 10:40:00,
2013-01-21 05:51:00,-3.3,-14.8,29.75,SSW,213,3.0,3.0,57,0.00,,,0.00,Wunderground v.1.13,2013-01-21 10:51:00,
2013-01-21 06:00:00,-3.3,-14.8,29.77,SSE,164,3.0,3.0,57,0.00,,,0.00,Wunderground v.1.13,2013-01-21 11:00:00,
2013-01-21 06:10:00,-3.5,-15.0,29.77,ENE,73,3.0,5.0,57,0.00,,,0.00,Wunderground v.1.13,2013-01-21 11:10:00,
2013-01-21 06:30:00,-3.9,-15.0,29.77,East,90,2.0,7.0,58,0.00,,,0.00,Wunderground v.1.13,2013-01-21 11:30:00,
2013-01-21 06:40:00,-3.9,-15.3,29.77,ESE,106,3.0,3.0,57,0.00,,,0.00,Wunderground v.1.13,2013-01-21 11:40:00,
2013-01-21 07:00:00,-4.3,-15.4,29.79,ENE,69,4.0,4.0,58,0.00,,,0.00,Wunderground v.1.13,2013-01-21 12:00:00,
2013-01-21 07:10:00,-4.3,-15.4,29.79,NNE,28,3.0,3.0,58,0.00,,,0.00,Wunderground v.1.13,2013-01-21 12:10:00,
2013-01-21 07:30:00,-4.6,-15.6,29.81,North,3,4.0,4.0,58,0.00,,,0.00,Wunderground v.1.13,2013-01-21 12:30:00,
2013-01-21 07:40:00,-4.8,-15.8,29.81,North,359,2.0,2.0,58,0.00,,,0.00,Wunderground v.1.13,2013-01-21 12:40:00,
2013-01-21 08:00:00,-4.6,-15.6,29.82,East,95,2.0,2.0,58,0.00,,,0.00,Wunderground v.1.13,2013-01-21 13:00:00,
2013-01-21 08:10:00,-4.3,-15.7,29.82,NE,48,3.0,3.0,57,0.00,,,0.00,Wunderground v.1.13,2013-01-21 13:10:00,
2013-01-21 08:30:00,-3.5,-15.0,29.85,East,88,4.0,6.0,57,0.00,,,0.00,Wunderground v.1.13,2013-01-21 13:30:00,
2013-01-21 08:40:00,-3.1,-15.3,29.85,ENE,66,3.0,3.0,55,0.00,,,0.00,Wunderground v.1.13,2013-01-21 13:40:00,
2013-01-21 09:00:00,-2.4,-15.0,29.86,ENE,65,4.0,6.0,54,0.00,,,0.00,Wunderground v.1.13,2013-01-21 14:00:00,
2013-01-21 09:10:00,-2.2,-14.8,29.86,North,0,5.0,6.0,54,0.00,,,0.00,Wunderground v.1.13,2013-01-21 14:10:00,
2013-01-21 09:30:00,-1.8,-14.8,29.89,ENE,72,4.0,5.0,53,0.00,,,0.00,Wunderground v.1.13,2013-01-21 14:30:00,
2013-01-21 09:40:00,-1.6,-15.4,29.89,East,80,5.0,8.0,51,0.00,,,0.00,Wunderground v.1.13,2013-01-21 14:40:00,
2013-01-21 10:00:00,-1.0,-15.6,29.91,NW,304,5.0,5.0,49,0.00,,,0.00,Wunderground v.1.13,2013-01-21 15:00:00,
2013-01-21 10:10:00,-1.0,-15.6,29.91,NE,38,6.0,6.0,49,0.00,,,0.00,Wunderground v.1.13,2013-01-21 15:10:00,
2013-01-21 10:30:00,-0.4,-15.4,29.92,East,89,5.0,5.0,48,0.00,,,0.00,Wunderground v.1.13,2013-01-21 15:30:00,
2013-01-21 10:40:00,0.0,-15.5,29.92,NNE,21,4.0,8.0,47,0.00,,,0.00,Wunderground v.1.13,2013-01-21 15:40:00,
2013-01-21 10:51:00,0.1,-15.4,29.92,ENE,65,5.0,10.0,47,0.00,,,0.00,Wunderground v.1.13,2013-01-21 15:51:00,
2013-01-21 11:00:00,0.5,-15.0,29.91,West,261,5.0,5.0,47,0.00,,,0.00,Wunderground v.1.13,2013-01-21 16:00:00,
2013-01-21 11:10:00,0.5,-15.5,29.91,ENE,72,6.0,11.0,46,0.00,,,0.00,Wunderground v.1.13,2013-01-21 16:10:00,
2013-01-21 11:20:00,1.1,-14.9,29.91,NNW,343,5.0,5.0,46,0.00,,,0.00,Wunderground v.1.13,2013-01-21 16:20:00,
2013-01-21 11:30:00,1.7,-14.3,29.91,SSE,147,5.0,6.0,46,0.00,,,0.00,Wunderground v.1.13,2013-01-21 16:30:00,
2013-01-21 11:40:00,1.8,-15.6,29.91,East,99,4.0,11.0,43,0.00,,,0.00,Wunderground v.1.13,2013-01-21 16:40:00,
2013-01-21 12:00:00,2.6,-14.4,29.91,ENE,76,3.0,3.0,44,0.00,,,0.00,Wunderground v.1.13,2013-01-21 17:00:00,
2013-01-21 12:10:00,3.0,-14.5,29.91,NE,35,4.0,4.0,43,0.00,,,0.00,Wunderground v.1.13,2013-01-21 17:10:00,
2013-01-21 12:30:00,3.7,-14.3,29.90,ENE,72,3.0,5.0,42,0.00,,,0.00,Wunderground v.1.13,2013-01-21 17:30:00,
2013-01-21 12:40:00,4.3,-13.8,29.90,NE,52,3.0,3.0,42,0.00,,,0.00,Wunderground v.1.13,2013-01-21 17:40:00,
2013-01-21 12:50:00,5.2,-12.9,29.89,NE,54,2.0,7.0,42,0.00,,,0.00,Wunderground v.1.13,2013-01-21 17:50:00,
2013-01-21 13:00:00,5.4,-13.2,29.90,NNW,330,3.0,3.0,41,0.00,,,0.00,Wunderground v.1.13,2013-01-21 18:00:00,
2013-01-21 13:10:00,5.4,-13.2,29.90,ENE,71,3.0,3.0,41,0.00,,,0.00,Wunderground v.1.13,2013-01-21 18:10:00,
2013-01-21 13:30:00,5.0,-13.6,29.90,North,0,3.0,6.0,41,0.00,,,0.00,Wunderground v.1.13,2013-01-21 18:30:00,
2013-01-21 13:40:00,5.2,-13.9,29.90,NNE,27,4.0,4.0,40,0.00,,,0.00,Wunderground v.1.13,2013-01-21 18:40:00,
2013-01-21 14:00:00,5.8,-13.4,29.91,NE,56,2.0,2.0,40,0.00,,,0.00,Wunderground v.1.13,2013-01-21 19:00:00,
2013-01-21 14:10:00,5.4,-13.2,29.91,East,93,4.0,7.0,41,0.00,,,0.00,Wunderground v.1.13,2013-01-21 19:10:00,
2013-01-21 14:30:00,5.0,-13.6,29.92,ENE,64,3.0,3.0,41,0.00,,,0.00,Wunderground v.1.13,2013-01-21 19:30:00,
2013-01-21 14:40:00,4.8,-13.8,29.92,ENE,59,2.0,5.0,41,0.00,,,0.00,Wunderground v.1.13,2013-01-21 19:40:00,
2013-01-21 15:00:00,4.8,-13.3,29.93,ENE,64,2.0,2.0,42,0.00,,,0.00,Wunderground v.1.13,2013-01-21 20:00:00,
2013-01-21 15:10:00,4.8,-12.4,29.93,NNE,32,2.0,2.0,44,0.00,,,0.00,Wunderground v.1.13,2013-01-21 20:10:00,
2013-01-21 15:30:00,4.7,-12.9,29.93,East,79,2.0,2.0,43,0.00,,,0.00,Wunderground v.1.13,2013-01-21 20:30:00,
2013-01-21 15:40:00,4.3,-12.8,29.93,ENE,61,1.0,1.0,44,0.00,,,0.00,Wunderground v.1.13,2013-01-21 20:40:00,
2013-01-21 16:00:00,3.7,-12.5,29.93,NE,52,1.0,1.0,46,0.00,,,0.00,Wunderground v.1.13,2013-01-21 21:00:00,
2013-01-21 16:10:00,3.4,-12.3,29.93,NE,37,1.0,1.0,47,0.00,,,0.00,Wunderground v.1.13,2013-01-21 21:10:00,
2013-01-21 16:30:00,2.8,-12.5,29.94,NE,41,1.0,1.0,48,0.00,,,0.00,Wunderground v.1.13,2013-01-21 21:30:00,
2013-01-21 16:40:00,2.2,-12.6,29.94,East,88,1.0,1.0,49,0.00,,,0.00,Wunderground v.1.13,2013-01-21 21:40:00,
2013-01-21 17:00:00,1.7,-12.7,29.95,NNE,24,1.0,1.0,50,0.00,,,0.00,Wunderground v.1.13,2013-01-21 22:00:00,
2013-01-21 17:10:00,1.1,-12.8,29.95,NNE,25,1.0,1.0,51,0.00,,,0.00,Wunderground v.1.13,2013-01-21 22:10:00,
2013-01-21 17:20:00,0.7,-12.8,29.96,NNE,27,1.0,1.0,52,0.00,,,0.00,Wunderground v.1.13,2013-01-21 22:20:00,
2013-01-21 17:30:00,0.5,-13.0,29.95,NE,55,1.0,1.0,52,0.00,,,0.00,Wunderground v.1.13,2013-01-21 22:30:00,
2013-01-21 17:40:00,-0.2,-13.7,29.95,NE,55,0.0,0.0,52,0.00,,,0.00,Wunderground v.1.13,2013-01-21 22:40:00,
2013-01-21 18:00:00,-1.2,-13.5,29.96,NNE,18,1.0,1.0,55,0.00,,,0.00,Wunderground v.1.13,2013-01-21 23:00:00,
2013-01-21 18:10:00,-2.0,-13.5,29.96,NNE,20,0.0,0.0,57,0.00,,,0.00,Wunderground v.1.13,2013-01-21 23:10:00,
2013-01-21 18:30:00,-4.1,-14.2,29.97,NNE,20,0.0,0.0,61,0.00,,,0.00,Wunderground v.1.13,2013-01-21 23:30:00,
2013-01-21 18:40:00,-3.9,-14.3,29.97,NNE,20,0.0,0.0,60,0.00,,,0.00,Wunderground v.1.13,2013-01-21 23:40:00,
2013-01-21 19:00:00,-4.1,-14.5,29.98,NNE,20,0.0,0.0,60,0.00,,,0.00,Wunderground v.1.13,2013-01-22 00:00:00,
2013-01-21 19:10:00,-4.1,-14.5,29.98,NE,38,0.0,0.0,60,0.00,,,0.00,Wunderground v.1.13,2013-01-22 00:10:00,
2013-01-21 19:30:00,-3.3,-14.4,29.98,NNE,21,1.0,1.0,58,0.00,,,0.00,Wunderground v.1.13,2013-01-22 00:30:00,
2013-01-21 19:50:00,-3.1,-14.2,29.98,North,7,1.0,1.0,58,0.00,,,0.00,Wunderground v.1.13,2013-01-22 00:50:00,
2013-01-21 20:00:00,-2.8,-14.6,29.99,North,6,1.0,1.0,56,0.00,,,0.00,Wunderground v.1.13,2013-01-22 01:00:00,
2013-01-21 20:10:00,-3.3,-15.5,29.99,North,0,1.0,1.0,55,0.00,,,0.00,Wunderground v.1.13,2013-01-22 01:10:00,
2013-01-21 20:30:00,-3.7,-15.5,30.00,North,0,1.0,1.0,56,0.00,,,0.00,Wunderground v.1.13,2013-01-22 01:30:00,
2013-01-21 20:40:00,-3.7,-15.5,30.00,North,6,1.0,1.0,56,0.00,,,0.00,Wunderground v.1.13,2013-01-22 01:40:00,
2013-01-21 21:00:00,-4.3,-16.1,30.01,NNE,18,1.0,1.0,56,0.00,,,0.00,Wunderground v.1.13,2013-01-22 02:00:00,
2013-01-21 21:20:00,-4.8,-16.2,30.01,NNE,18,0.0,0.0,57,0.00,,,0.00,Wunderground v.1.13,2013-01-22 02:20:00,
2013-01-21 21:30:00,-5.9,-17.2,30.02,NNE,18,0.0,0.0,57,0.00,,,0.00,Wunderground v.1.13,2013-01-22 02:30:00,
2013-01-21 21:40:00,-7.7,-17.9,30.02,NNE,18,0.0,0.0,60,0.00,,,0.00,Wunderground v.1.13,2013-01-22 02:40:00,
2013-01-21 22:00:00,-9.8,-19.0,30.02,NNE,18,0.0,0.0,63,0.00,,,0.00,Wunderground v.1.13,2013-01-22 03:00:00,
2013-01-21 22:10:00,-10.0,-18.3,30.02,NNE,18,0.0,1.0,66,0.00,,,0.00,Wunderground v.1.13,2013-01-22 03:10:00,
2013-01-21 22:30:00,-9.3,-17.3,30.01,NNE,18,0.0,0.0,67,0.00,,,0.00,Wunderground v.1.13,2013-01-22 03:30:00,
2013-01-21 22:40:00,-8.6,-16.9,30.01,NNE,18,0.0,0.0,66,0.00,,,0.00,Wunderground v.1.13,2013-01-22 03:40:00,
2013-01-21 23:00:00,-8.2,-16.8,30.00,NNE,18,0.0,0.0,65,0.00,,,0.00,Wunderground v.1.13,2013-01-22 04:00:00,
2013-01-21 23:10:00,-7.9,-16.8,30.00,NNE,18,0.0,0.0,64,0.00,,,0.00,Wunderground v.1.13,2013-01-22 04:10:00,
2013-01-21 23:21:00,-8.2,-17.1,29.99,NNE,18,0.0,1.0,64,0.00,,,0.00,Wunderground v.1.13,2013-01-22 04:21:00,
2013-01-21 23:30:00,-9.3,-18.5,29.99,NNE,18,0.0,0.0,63,0.00,,,0.00,Wunderground v.1.13,2013-01-22 04:30:00,
2013-01-21 23:40:00,-11.0,-19.8,29.99,NNE,18,0.0,0.0,64,0.00,,,0.00,Wunderground v.1.13,2013-01-22 04:40:00,